createdAt,value
2023-05-24T00:01:45.666Z,76.75
2023-05-24T00:04:49.627Z,77.27
2023-05-24T00:07:52.544Z,78.14
2023-05-24T00:10:55.251Z,78.39
2023-05-24T00:13:58.172Z,78.50
2023-05-24T00:17:00.986Z,78.24
2023-05-24T00:20:06.639Z,78.47
2023-05-24T00:23:10.165Z,78.26
2023-05-24T00:26:13.108Z,78.31
2023-05-24T00:29:20.020Z,78.82
2023-05-24T00:32:22.877Z,79.21
2023-05-24T00:35:25.676Z,80.11
2023-05-24T00:38:29.469Z,80.29
2023-05-24T00:41:32.320Z,80.06
2023-05-24T00:44:35.103Z,80.62
2023-05-24T00:47:38.050Z,80.31
2023-05-24T00:50:41.869Z,80.46
2023-05-24T00:53:47.173Z,81.47
2023-05-24T00:56:50.038Z,82.23
2023-05-24T00:59:53.220Z,81.65
2023-05-24T01:02:57.361Z,81.87
2023-05-24T01:06:06.245Z,82.20
2023-05-24T01:09:20.188Z,82.07
2023-05-24T01:12:25.806Z,82.02
2023-05-24T01:15:40.511Z,81.97
2023-05-24T01:18:50.507Z,82.51
2023-05-24T01:21:56.357Z,82.83
2023-05-24T01:25:02.393Z,83.26
2023-05-24T01:28:08.361Z,83.42
2023-05-24T01:31:13.741Z,83.14
2023-05-24T01:34:17.020Z,83.50
2023-05-24T01:37:19.977Z,83.21
2023-05-24T01:40:22.826Z,83.34
2023-05-24T01:43:47.342Z,83.28
2023-05-24T01:47:02.455Z,82.34
2023-05-24T01:50:25.137Z,81.25
2023-05-24T01:53:39.649Z,80.99
2023-05-24T01:56:44.789Z,82.05
2023-05-24T01:59:48.180Z,81.98
2023-05-24T02:02:51.611Z,82.12
2023-05-24T02:05:54.538Z,81.69
2023-05-24T02:08:57.402Z,81.73
2023-05-24T02:12:00.130Z,81.20
2023-05-24T02:15:03.077Z,81.42
2023-05-24T02:18:08.336Z,81.04
2023-05-24T02:21:12.125Z,80.84
2023-05-24T02:24:15.209Z,81.22
2023-05-24T02:27:17.957Z,81.15
2023-05-24T02:30:20.858Z,80.77
2023-05-24T02:33:25.747Z,80.49
2023-05-24T02:36:28.541Z,80.04
2023-05-24T02:39:31.583Z,79.69
2023-05-24T02:42:34.806Z,79.14
2023-05-24T02:45:37.871Z,79.22
2023-05-24T02:48:40.994Z,78.98
2023-05-24T02:51:43.713Z,78.41
2023-05-24T02:54:46.969Z,78.13
2023-05-24T02:57:49.824Z,78.36
2023-05-24T03:00:52.591Z,77.72
2023-05-24T03:03:57.137Z,77.85
2023-05-24T03:06:59.977Z,78.16
2023-05-24T03:10:02.714Z,78.96
2023-05-24T03:13:05.919Z,79.04
2023-05-24T03:16:09.346Z,78.85
2023-05-24T03:19:12.171Z,79.38
2023-05-24T03:22:14.979Z,79.13
2023-05-24T03:25:17.869Z,78.76
2023-05-24T03:28:22.423Z,79.36
2023-05-24T03:31:26.682Z,80.14
2023-05-24T03:34:30.380Z,80.78
2023-05-24T03:37:33.355Z,80.43
2023-05-24T03:40:36.847Z,80.74
2023-05-24T03:43:48.507Z,81.54
2023-05-24T03:46:53.236Z,81.72
2023-05-24T03:49:56.079Z,81.11
2023-05-24T03:52:59.349Z,80.87
2023-05-24T03:56:02.148Z,80.86
2023-05-24T03:59:05.032Z,81.07
2023-05-24T04:02:08.718Z,81.79
2023-05-24T04:05:12.374Z,81.72
2023-05-24T04:08:15.338Z,81.47
2023-05-24T04:11:18.120Z,82.37
2023-05-24T04:14:22.063Z,82.08
2023-05-24T04:17:25.578Z,82.56
2023-05-24T04:20:30.159Z,82.15
2023-05-24T04:23:33.035Z,82.16
2023-05-24T04:26:37.803Z,81.89
2023-05-24T04:29:42.301Z,81.59
2023-05-24T04:32:45.075Z,81.17
2023-05-24T04:35:48.482Z,80.52
2023-05-24T04:38:53.823Z,80.29
2023-05-24T04:41:58.246Z,79.95
2023-05-24T04:45:01.207Z,80.34
2023-05-24T04:48:05.205Z,80.00
2023-05-24T04:51:08.059Z,80.29
2023-05-24T04:54:10.833Z,79.63
2023-05-24T04:57:13.994Z,80.08
2023-05-24T05:00:17.062Z,79.74
2023-05-24T05:03:19.930Z,79.40
2023-05-24T05:06:22.726Z,78.39
2023-05-24T05:09:25.575Z,78.77
2023-05-24T05:12:28.344Z,78.64
2023-05-24T05:15:31.070Z,78.73
2023-05-24T05:18:34.241Z,78.29
2023-05-24T05:21:37.180Z,78.00
2023-05-24T05:24:40.246Z,78.14
2023-05-24T05:27:43.948Z,77.43
2023-05-24T05:30:46.753Z,77.71
2023-05-24T05:33:49.621Z,77.43
2023-05-24T05:36:52.345Z,78.34
2023-05-24T05:39:55.128Z,77.25
2023-05-24T05:42:57.836Z,77.62
2023-05-24T05:46:03.575Z,78.24
2023-05-24T05:49:07.076Z,78.17
2023-05-24T05:52:09.983Z,76.74
2023-05-24T05:55:12.824Z,75.82
2023-05-24T05:58:15.669Z,76.40
2023-05-24T06:01:18.459Z,76.60
2023-05-24T06:04:21.493Z,76.65
2023-05-24T06:07:24.325Z,76.45
2023-05-24T06:10:27.864Z,76.00
2023-05-24T06:13:31.464Z,75.55
2023-05-24T06:16:34.321Z,74.74
2023-05-24T06:19:37.158Z,75.33
2023-05-24T06:22:40.107Z,75.09
2023-05-24T06:25:44.077Z,75.25
2023-05-24T06:28:46.777Z,75.66
2023-05-24T06:31:50.529Z,74.70
2023-05-24T06:34:53.688Z,75.23
2023-05-24T06:37:58.134Z,75.18
2023-05-24T06:41:00.879Z,74.65
2023-05-24T06:44:03.716Z,75.19
2023-05-24T06:47:06.983Z,74.47
2023-05-24T06:50:11.005Z,74.20
2023-05-24T06:53:13.781Z,73.16
2023-05-24T06:56:16.772Z,74.45
2023-05-24T06:59:19.611Z,74.17
2023-05-24T07:02:26.797Z,73.52
2023-05-24T07:05:29.995Z,73.54
2023-05-24T07:08:32.744Z,73.60
2023-05-24T07:11:35.780Z,73.54
2023-05-24T07:14:38.581Z,72.86
2023-05-24T07:17:41.650Z,72.71
2023-05-24T07:20:44.865Z,73.54
2023-05-24T07:23:47.898Z,73.49
2023-05-24T07:26:52.251Z,73.71
2023-05-24T07:29:55.035Z,74.67
2023-05-24T07:32:58.080Z,74.09
2023-05-24T07:36:00.848Z,72.99
2023-05-24T07:39:06.245Z,72.69
2023-05-24T07:42:09.335Z,73.53
2023-05-24T07:45:14.295Z,73.51
2023-05-24T07:48:17.122Z,73.49
2023-05-24T07:51:21.063Z,73.46
2023-05-24T07:54:24.043Z,73.38
2023-05-24T07:57:26.828Z,72.56
2023-05-24T08:00:30.159Z,72.11
2023-05-24T08:03:35.066Z,72.33
2023-05-24T08:06:38.217Z,71.45
2023-05-24T08:09:42.128Z,70.52
2023-05-24T08:12:45.270Z,70.23
2023-05-24T08:15:48.089Z,68.58
2023-05-24T08:18:52.603Z,67.26
2023-05-24T08:22:03.899Z,65.31
2023-05-24T08:25:07.176Z,63.97
2023-05-24T08:28:11.209Z,62.23
2023-05-24T08:31:14.433Z,62.19
2023-05-24T08:34:18.168Z,62.21
2023-05-24T08:37:22.773Z,61.67
2023-05-24T08:40:25.534Z,60.01
2023-05-24T08:43:32.002Z,61.38
2023-05-24T08:46:37.024Z,59.87
2023-05-24T08:49:41.536Z,58.98
2023-05-24T08:52:46.165Z,57.95
2023-05-24T08:55:50.044Z,58.59
2023-05-24T08:58:55.033Z,56.40
2023-05-24T09:01:59.644Z,57.17
2023-05-24T09:05:03.183Z,53.56
2023-05-24T09:08:06.461Z,54.62
2023-05-24T09:11:09.574Z,53.99
2023-05-24T09:14:13.210Z,55.06
2023-05-24T09:17:16.369Z,53.09
2023-05-24T09:20:20.906Z,51.34
2023-05-24T09:23:26.790Z,51.21
2023-05-24T09:26:30.647Z,52.38
2023-05-24T09:29:37.056Z,53.43
2023-05-24T09:32:40.153Z,52.06
2023-05-24T09:35:46.837Z,51.75
2023-05-24T09:38:50.275Z,51.91
2023-05-24T09:41:57.480Z,51.44
2023-05-24T09:45:10.829Z,51.51
2023-05-24T09:48:15.420Z,50.42
2023-05-24T09:51:19.286Z,51.52
2023-05-24T09:54:22.221Z,52.08
2023-05-24T09:57:26.020Z,52.36
2023-05-24T10:00:28.955Z,51.64
2023-05-24T10:03:32.510Z,52.63
2023-05-24T10:06:38.705Z,51.54
2023-05-24T10:09:42.402Z,51.95
2023-05-24T10:12:47.209Z,52.22
2023-05-24T10:15:50.050Z,50.48
2023-05-24T10:18:54.532Z,51.76
2023-05-24T10:21:59.573Z,51.34
2023-05-24T10:25:06.628Z,51.18
2023-05-24T10:28:14.044Z,50.10
2023-05-24T10:31:28.455Z,49.79
2023-05-24T10:34:32.036Z,49.78
2023-05-24T10:37:35.806Z,50.18
2023-05-24T10:40:42.979Z,48.54
2023-05-24T10:44:00.760Z,49.58
2023-05-24T10:47:12.414Z,49.54
2023-05-24T10:50:19.499Z,48.73
2023-05-24T10:53:28.567Z,45.84
2023-05-24T10:56:31.337Z,46.53
2023-05-24T10:59:39.727Z,48.27
2023-05-24T11:02:43.799Z,47.77
2023-05-24T11:05:46.857Z,46.13
2023-05-24T11:08:49.877Z,47.61
2023-05-24T11:12:07.832Z,47.14
2023-05-24T11:15:11.716Z,48.25
2023-05-24T11:18:15.669Z,49.36
2023-05-24T11:21:18.681Z,48.39
2023-05-24T11:24:22.211Z,48.80
2023-05-24T11:27:26.257Z,49.13
2023-05-24T11:30:29.107Z,48.79
2023-05-24T11:33:32.306Z,48.16
2023-05-24T11:36:36.926Z,46.56
2023-05-24T11:39:40.625Z,48.49
2023-05-24T11:42:44.528Z,50.01
2023-05-24T11:45:50.207Z,47.87
2023-05-24T11:48:58.155Z,47.60
2023-05-24T11:52:02.833Z,50.12
2023-05-24T11:55:06.525Z,47.47
2023-05-24T11:58:23.403Z,47.16
2023-05-24T12:01:27.670Z,44.86
2023-05-24T12:04:31.582Z,43.91
2023-05-24T12:07:34.714Z,43.96
2023-05-24T12:10:38.851Z,44.81
2023-05-24T12:13:42.662Z,46.86
2023-05-24T12:16:46.823Z,48.24
2023-05-24T12:19:51.971Z,49.74
2023-05-24T12:22:56.252Z,48.89
2023-05-24T12:26:00.424Z,49.61
2023-05-24T12:29:03.592Z,49.31
2023-05-24T12:32:12.655Z,50.49
2023-05-24T12:35:19.125Z,50.00
2023-05-24T12:38:25.818Z,48.17
2023-05-24T12:41:30.850Z,48.89
2023-05-24T12:44:37.753Z,49.45
2023-05-24T12:47:41.076Z,49.12
2023-05-24T12:50:44.127Z,48.58
2023-05-24T12:53:47.144Z,49.27
2023-05-24T12:56:50.946Z,48.18
2023-05-24T12:59:54.916Z,47.97
2023-05-24T13:02:59.585Z,48.44
2023-05-24T13:06:02.536Z,47.23
2023-05-24T13:09:06.606Z,46.61
2023-05-24T13:12:10.077Z,46.22
2023-05-24T13:15:14.053Z,45.91
2023-05-24T13:18:17.173Z,43.35
2023-05-24T13:21:19.912Z,41.59
2023-05-24T13:24:23.437Z,43.43
2023-05-24T13:27:26.731Z,42.00
2023-05-24T13:30:29.507Z,40.27
2023-05-24T13:33:33.980Z,43.07
2023-05-24T13:36:38.173Z,42.61
2023-05-24T13:39:41.232Z,44.04
2023-05-24T13:42:44.238Z,43.21
2023-05-24T13:45:47.087Z,42.33
2023-05-24T13:48:49.844Z,41.43
2023-05-24T13:51:55.603Z,38.21
2023-05-24T13:55:00.228Z,34.47
2023-05-24T13:58:05.095Z,37.05
2023-05-24T14:01:08.025Z,39.00
2023-05-24T14:04:10.817Z,36.17
2023-05-24T14:07:15.907Z,37.95
2023-05-24T14:10:21.247Z,36.72
2023-05-24T14:14:16.654Z,37.01
2023-05-24T14:16:51.886Z,35.56
2023-05-24T14:19:54.724Z,35.55
2023-05-24T14:22:58.582Z,34.70
2023-05-24T14:26:02.104Z,33.02
2023-05-24T14:29:04.871Z,35.14
2023-05-24T14:32:07.752Z,33.15
2023-05-24T14:35:10.587Z,33.45
2023-05-24T14:38:13.375Z,33.45
2023-05-24T14:41:16.401Z,38.51
2023-05-24T14:44:19.552Z,38.58
2023-05-24T14:47:22.279Z,39.49
2023-05-24T14:50:25.044Z,37.89
2023-05-24T14:53:27.812Z,36.31
2023-05-24T14:56:31.202Z,34.72
2023-05-24T14:59:34.195Z,35.68
2023-05-24T15:02:37.804Z,36.63
2023-05-24T15:05:42.711Z,34.14
2023-05-24T15:08:45.746Z,34.04
2023-05-24T15:11:48.525Z,36.91
2023-05-24T15:14:51.446Z,37.40
2023-05-24T15:17:54.210Z,40.90
2023-05-24T15:20:57.446Z,40.65
2023-05-24T15:24:00.311Z,37.89
2023-05-24T15:27:03.126Z,37.38
2023-05-24T15:30:07.514Z,34.70
2023-05-24T15:33:11.362Z,36.91
2023-05-24T15:36:16.946Z,35.88
2023-05-24T15:39:20.748Z,33.96
2023-05-24T15:42:25.300Z,35.08
2023-05-24T15:45:28.127Z,38.33
2023-05-24T15:48:31.055Z,36.81
2023-05-24T15:52:02.800Z,37.95
2023-05-24T15:54:56.513Z,37.33
2023-05-24T15:57:59.616Z,37.64
2023-05-24T16:01:02.443Z,38.09
2023-05-24T16:04:05.244Z,37.45
2023-05-24T16:07:08.119Z,36.65
2023-05-24T16:10:11.028Z,36.20
2023-05-24T16:13:13.886Z,36.90
2023-05-24T16:16:16.725Z,36.51
2023-05-24T16:19:19.598Z,35.92
2023-05-24T16:22:22.417Z,36.12
2023-05-24T16:25:25.948Z,36.27
2023-05-24T16:28:28.723Z,38.49
2023-05-24T16:31:32.295Z,35.99
2023-05-24T16:34:51.972Z,35.74
2023-05-24T16:37:57.983Z,36.94
2023-05-24T16:41:00.863Z,36.01
2023-05-24T16:44:07.667Z,37.64
2023-05-24T16:47:10.527Z,38.52
2023-05-24T16:50:16.499Z,39.37
2023-05-24T16:53:23.144Z,40.44
2023-05-24T16:56:26.084Z,41.06
2023-05-24T16:59:28.902Z,41.35
2023-05-24T17:02:31.758Z,41.75
2023-05-24T17:05:34.514Z,43.15
2023-05-24T17:08:37.460Z,43.37
2023-05-24T17:11:41.475Z,43.39
2023-05-24T17:14:44.624Z,43.83
2023-05-24T17:17:47.720Z,43.61
2023-05-24T17:20:51.399Z,44.14
2023-05-24T17:23:55.403Z,43.97
2023-05-24T17:26:58.278Z,44.99
2023-05-24T17:30:01.093Z,45.93
2023-05-24T17:33:04.303Z,46.13
2023-05-24T17:36:07.343Z,47.24
2023-05-24T17:39:10.160Z,47.64
2023-05-24T17:42:12.877Z,48.82
2023-05-24T17:45:15.711Z,49.91
2023-05-24T17:48:18.447Z,49.53
2023-05-24T17:51:21.289Z,49.66
2023-05-24T17:54:24.116Z,49.99
2023-05-24T17:57:28.474Z,50.62
2023-05-24T18:00:31.589Z,49.88
2023-05-24T18:03:37.302Z,49.17
2023-05-24T18:06:40.963Z,49.76
2023-05-24T18:09:43.656Z,49.96
2023-05-24T18:12:46.804Z,50.11
2023-05-24T18:15:50.692Z,51.07
2023-05-24T18:18:54.524Z,51.57
2023-05-24T18:21:58.162Z,51.59
2023-05-24T18:25:01.111Z,51.22
2023-05-24T18:28:04.112Z,51.92
2023-05-24T18:31:08.766Z,51.78
2023-05-24T18:34:12.559Z,52.52
2023-05-24T18:37:15.577Z,52.57
2023-05-24T18:40:18.474Z,53.16
2023-05-24T18:43:21.239Z,53.29
2023-05-24T18:46:26.097Z,53.68
2023-05-24T18:49:28.922Z,54.37
2023-05-24T18:52:31.634Z,54.95
2023-05-24T18:55:34.369Z,55.85
2023-05-24T18:58:37.226Z,56.16
2023-05-24T19:01:40.003Z,56.53
2023-05-24T19:04:42.937Z,57.01
2023-05-24T19:07:45.844Z,57.77
2023-05-24T19:10:48.638Z,57.61
2023-05-24T19:13:51.390Z,58.37
2023-05-24T19:16:54.188Z,58.82
2023-05-24T19:19:57.022Z,58.86
2023-05-24T19:22:59.837Z,59.29
2023-05-24T19:26:02.860Z,60.72
2023-05-24T19:29:05.643Z,60.93
2023-05-24T19:32:09.024Z,61.02
2023-05-24T19:35:12.442Z,61.15
2023-05-24T19:38:18.087Z,61.69
2023-05-24T19:41:20.899Z,61.92
2023-05-24T19:44:23.623Z,61.89
2023-05-24T19:47:26.581Z,61.94
2023-05-24T19:50:31.267Z,62.45
2023-05-24T19:53:34.391Z,62.29
2023-05-24T19:56:37.694Z,62.14
2023-05-24T19:59:40.544Z,63.27
2023-05-24T20:02:43.486Z,63.61
2023-05-24T20:05:46.292Z,64.63
2023-05-24T20:08:51.274Z,64.93
2023-05-24T20:11:54.066Z,65.21
2023-05-24T20:14:56.834Z,65.67
2023-05-24T20:17:59.655Z,65.77
2023-05-24T20:21:03.036Z,66.26
2023-05-24T20:24:07.209Z,66.58
2023-05-24T20:27:09.999Z,67.12
2023-05-24T20:30:13.452Z,66.85
2023-05-24T20:33:16.299Z,67.74
2023-05-24T20:36:19.099Z,68.39
2023-05-24T20:39:21.844Z,68.78
2023-05-24T20:42:24.586Z,68.39
2023-05-24T20:45:27.413Z,69.12
2023-05-24T20:48:30.218Z,69.46
2023-05-24T20:51:33.388Z,69.43
2023-05-24T20:54:36.328Z,69.15
2023-05-24T20:57:40.595Z,69.13
2023-05-24T21:00:43.542Z,68.81
2023-05-24T21:03:46.412Z,68.45
2023-05-24T21:06:49.261Z,68.42
2023-05-24T21:09:52.196Z,68.46
2023-05-24T21:12:54.987Z,68.65
2023-05-24T21:15:57.718Z,69.15
2023-05-24T21:19:01.130Z,69.63
2023-05-24T21:22:04.733Z,70.10
2023-05-24T21:25:07.961Z,70.83
2023-05-24T21:28:10.911Z,70.67
2023-05-24T21:31:13.827Z,70.76
2023-05-24T21:34:16.580Z,71.34
2023-05-24T21:37:19.289Z,71.61
2023-05-24T21:40:22.116Z,71.37
2023-05-24T21:43:24.951Z,71.43
2023-05-24T21:46:29.489Z,71.41
2023-05-24T21:49:32.285Z,71.53
2023-05-24T21:52:35.020Z,71.58
2023-05-24T21:55:37.759Z,71.82
2023-05-24T21:58:40.767Z,71.81
2023-05-24T22:01:43.548Z,72.39
2023-05-24T22:04:46.370Z,72.60
2023-05-24T22:07:49.113Z,72.86
2023-05-24T22:10:51.956Z,71.91
2023-05-24T22:13:55.084Z,72.01
2023-05-24T22:16:57.876Z,71.63
2023-05-24T22:20:01.527Z,72.10
2023-05-24T22:23:04.350Z,71.71
2023-05-24T22:26:07.317Z,71.88
2023-05-24T22:29:10.105Z,71.99
2023-05-24T22:32:13.669Z,72.42
2023-05-24T22:35:17.406Z,72.67
2023-05-24T22:38:20.160Z,72.37
2023-05-24T22:41:23.086Z,73.24
2023-05-24T22:44:26.946Z,73.67
2023-05-24T22:47:33.625Z,73.44
2023-05-24T22:50:36.578Z,73.54
2023-05-24T22:53:39.816Z,74.17
2023-05-24T22:56:43.270Z,74.05
2023-05-24T22:59:46.016Z,74.43
2023-05-24T23:02:48.803Z,73.89
2023-05-24T23:05:53.736Z,74.17
2023-05-24T23:08:56.620Z,74.92
2023-05-24T23:12:01.012Z,74.67
2023-05-24T23:15:04.812Z,75.03
2023-05-24T23:18:08.132Z,75.45
2023-05-24T23:21:11.000Z,75.70
2023-05-24T23:24:16.752Z,75.37
2023-05-24T23:27:19.546Z,75.27
2023-05-24T23:30:22.328Z,75.81
2023-05-24T23:33:25.108Z,76.17
2023-05-24T23:36:27.898Z,76.38
2023-05-24T23:39:31.197Z,75.87
2023-05-24T23:42:34.049Z,76.77
2023-05-24T23:45:36.854Z,76.60
2023-05-24T23:48:39.614Z,76.63
2023-05-24T23:51:42.385Z,76.58
2023-05-24T23:54:45.085Z,76.70
2023-05-24T23:57:48.908Z,77.08
